createdAt,value
2023-02-24T00:00:33.789Z,23.33
2023-02-24T00:03:11.261Z,24.87
2023-02-24T00:05:44.419Z,27.00
2023-02-24T00:08:14.263Z,28.20
2023-02-24T00:10:42.659Z,27.53
2023-02-24T00:13:12.310Z,27.53
2023-02-24T00:15:41.022Z,22.03
2023-02-24T00:18:10.538Z,27.37
2023-02-24T00:20:38.978Z,30.13
2023-02-24T00:23:09.801Z,27.43
2023-02-24T00:25:39.530Z,30.27
2023-02-24T00:28:08.897Z,29.87
2023-02-24T00:30:37.244Z,35.00
2023-02-24T00:33:06.722Z,27.63
2023-02-24T00:35:35.730Z,34.17
2023-02-24T00:38:04.187Z,30.23
2023-02-24T00:40:32.598Z,24.30
2023-02-24T00:43:02.667Z,28.23
2023-02-24T00:45:33.964Z,34.20
2023-02-24T00:48:04.726Z,25.77
2023-02-24T00:50:33.198Z,30.03
2023-02-24T00:53:01.565Z,28.47
2023-02-24T00:55:36.517Z,26.47
2023-02-24T00:58:07.459Z,30.20
2023-02-24T01:00:37.619Z,28.93
2023-02-24T01:03:07.063Z,31.67
2023-02-24T01:05:37.729Z,22.00
2023-02-24T01:08:06.214Z,24.10
2023-02-24T01:10:35.549Z,21.90
2023-02-24T01:13:02.955Z,33.37
2023-02-24T01:15:32.748Z,27.27
2023-02-24T01:18:01.121Z,30.50
2023-02-24T01:20:30.615Z,32.10
2023-02-24T01:22:59.137Z,31.03
2023-02-24T01:25:31.407Z,33.37
2023-02-24T01:27:59.853Z,25.67
2023-02-24T01:30:29.055Z,27.03
2023-02-24T01:33:01.869Z,27.33
2023-02-24T01:35:34.872Z,30.07
2023-02-24T01:38:05.289Z,32.40
2023-02-24T01:40:33.768Z,27.90
2023-02-24T01:43:02.161Z,27.87
2023-02-24T01:45:35.479Z,27.80
2023-02-24T01:48:07.658Z,28.03
2023-02-24T01:50:36.789Z,28.57
2023-02-24T01:53:07.293Z,32.67
2023-02-24T01:55:38.086Z,29.57
2023-02-24T01:58:08.483Z,26.23
2023-02-24T02:00:45.323Z,27.10
2023-02-24T02:03:25.248Z,30.27
2023-02-24T02:05:54.180Z,28.17
2023-02-24T02:08:24.856Z,34.17
2023-02-24T02:10:58.877Z,28.47
2023-02-24T02:13:28.516Z,27.43
2023-02-24T02:16:04.110Z,30.43
2023-02-24T02:18:44.114Z,32.37
2023-02-24T02:21:25.635Z,29.30
2023-02-24T02:24:00.923Z,36.30
2023-02-24T02:26:36.545Z,30.20
2023-02-24T02:29:18.401Z,31.17
2023-02-24T02:31:56.274Z,33.13
2023-02-24T02:34:31.009Z,28.87
2023-02-24T02:37:03.041Z,32.53
2023-02-24T02:39:37.152Z,33.67
2023-02-24T02:42:14.338Z,27.87
2023-02-24T02:44:47.984Z,28.93
2023-02-24T02:47:23.124Z,28.23
2023-02-24T02:49:54.775Z,32.97
2023-02-24T02:52:25.082Z,31.37
2023-02-24T02:54:56.592Z,28.47
2023-02-24T02:57:27.083Z,24.67
2023-02-24T02:59:58.271Z,26.40
2023-02-24T03:02:29.633Z,34.37
2023-02-24T03:05:02.044Z,27.77
2023-02-24T03:07:35.121Z,31.07
2023-02-24T03:10:10.786Z,28.50
2023-02-24T03:12:42.029Z,26.33
2023-02-24T03:15:12.291Z,28.10
2023-02-24T03:17:45.406Z,24.77
2023-02-24T03:20:18.797Z,24.70
2023-02-24T03:22:50.533Z,24.63
2023-02-24T03:25:24.148Z,29.90
2023-02-24T03:27:55.654Z,22.53
2023-02-24T03:30:28.520Z,23.67
2023-02-24T03:32:58.571Z,25.13
2023-02-24T03:35:34.408Z,27.60
2023-02-24T03:38:04.234Z,24.13
2023-02-24T03:40:35.911Z,23.90
2023-02-24T03:43:07.949Z,25.20
2023-02-24T03:45:39.094Z,20.30
2023-02-24T03:48:08.638Z,20.40
2023-02-24T03:50:39.901Z,25.27
2023-02-24T03:53:32.031Z,22.87
2023-02-24T03:56:05.736Z,20.30
2023-02-24T03:58:50.034Z,24.07
2023-02-24T04:01:25.443Z,20.33
2023-02-24T04:03:58.053Z,25.00
2023-02-24T04:06:38.568Z,21.67
2023-02-24T04:09:12.096Z,23.70
2023-02-24T04:11:55.436Z,21.00
2023-02-24T04:14:26.158Z,23.67
2023-02-24T04:17:01.176Z,23.63
2023-02-24T04:19:31.615Z,31.57
2023-02-24T04:22:03.927Z,20.87
2023-02-24T04:24:34.280Z,25.93
2023-02-24T04:27:06.397Z,25.37
2023-02-24T04:29:40.411Z,24.27
2023-02-24T04:32:12.118Z,24.47
2023-02-24T04:34:41.187Z,26.00
2023-02-24T04:37:14.536Z,25.63
2023-02-24T04:39:43.063Z,30.73
2023-02-24T04:42:22.396Z,28.47
2023-02-24T04:44:50.756Z,28.60
2023-02-24T04:47:19.175Z,23.07
2023-02-24T04:49:47.599Z,25.03
2023-02-24T04:52:17.759Z,23.87
2023-02-24T04:54:46.172Z,23.17
2023-02-24T04:57:14.598Z,27.17
2023-02-24T04:59:43.072Z,28.33
2023-02-24T05:02:13.328Z,25.87
2023-02-24T05:04:41.839Z,26.67
2023-02-24T05:07:12.780Z,26.17
2023-02-24T05:09:42.594Z,27.67
2023-02-24T05:12:10.993Z,30.40
2023-02-24T05:14:39.682Z,26.23
2023-02-24T05:17:08.155Z,28.60
2023-02-24T05:19:54.321Z,28.17
2023-02-24T05:22:22.988Z,23.63
2023-02-24T05:24:52.900Z,27.43
2023-02-24T05:27:22.335Z,26.83
2023-02-24T05:29:50.723Z,25.97
2023-02-24T05:32:19.233Z,26.33
2023-02-24T05:34:47.992Z,26.00
2023-02-24T05:37:16.766Z,29.57
2023-02-24T05:39:45.231Z,25.27
2023-02-24T05:42:17.089Z,29.57
2023-02-24T05:44:46.344Z,26.80
2023-02-24T05:47:17.451Z,27.23
2023-02-24T05:49:48.060Z,26.43
2023-02-24T05:52:16.477Z,26.80
2023-02-24T05:54:48.219Z,29.97
2023-02-24T05:57:21.459Z,29.73
2023-02-24T05:59:51.228Z,30.87
2023-02-24T06:02:27.481Z,26.20
2023-02-24T06:04:56.996Z,25.10
2023-02-24T06:07:26.642Z,22.67
2023-02-24T06:09:57.117Z,22.40
2023-02-24T06:12:28.382Z,32.80
2023-02-24T06:14:58.133Z,36.30
2023-02-24T06:17:26.597Z,28.43
2023-02-24T06:19:55.400Z,29.80
2023-02-24T06:22:25.192Z,35.13
2023-02-24T06:24:54.876Z,28.53
2023-02-24T06:27:25.062Z,28.13
2023-02-24T06:29:56.731Z,35.27
2023-02-24T06:32:27.170Z,31.80
2023-02-24T06:34:57.448Z,35.33
2023-02-24T06:37:26.149Z,29.20
2023-02-24T06:39:54.725Z,30.63
2023-02-24T06:42:23.269Z,27.17
2023-02-24T06:44:51.823Z,29.63
2023-02-24T06:47:22.760Z,32.17
2023-02-24T06:49:51.562Z,28.10
2023-02-24T06:52:19.984Z,29.60
2023-02-24T06:54:52.538Z,27.90
2023-02-24T06:57:21.018Z,34.07
2023-02-24T06:59:50.866Z,32.00
2023-02-24T07:02:19.320Z,30.63
2023-02-24T07:04:49.253Z,27.43
2023-02-24T07:07:18.976Z,29.27
2023-02-24T07:09:47.513Z,29.90
2023-02-24T07:12:21.136Z,25.80
2023-02-24T07:14:50.891Z,35.17
2023-02-24T07:17:20.978Z,37.77
2023-02-24T07:19:51.012Z,36.13
2023-02-24T07:22:25.199Z,45.07
2023-02-24T07:25:00.545Z,40.90
2023-02-24T07:27:29.218Z,38.70
2023-02-24T07:29:59.218Z,43.60
2023-02-24T07:32:28.072Z,45.07
2023-02-24T07:34:59.578Z,53.63
2023-02-24T07:37:31.742Z,41.73
2023-02-24T07:40:00.361Z,56.93
2023-02-24T07:42:32.863Z,45.00
2023-02-24T07:45:01.600Z,58.10
2023-02-24T07:47:30.128Z,49.50
2023-02-24T07:50:00.434Z,47.53
2023-02-24T07:52:32.712Z,60.83
2023-02-24T07:55:01.145Z,61.67
2023-02-24T07:57:29.543Z,65.33
2023-02-24T07:59:59.069Z,58.50
2023-02-24T08:02:29.317Z,70.83
2023-02-24T08:04:57.741Z,61.23
2023-02-24T08:07:30.490Z,75.57
2023-02-24T08:10:14.069Z,64.23
2023-02-24T08:12:47.664Z,63.17
2023-02-24T08:15:24.428Z,65.27
2023-02-24T08:17:55.821Z,71.33
2023-02-24T08:20:29.750Z,69.73
2023-02-24T08:22:59.770Z,51.00
2023-02-24T08:25:35.949Z,55.17
2023-02-24T08:28:08.925Z,69.07
2023-02-24T08:30:45.291Z,64.57
2023-02-24T08:33:17.794Z,66.37
2023-02-24T08:35:46.272Z,55.30
2023-02-24T08:38:17.698Z,62.80
2023-02-24T08:40:51.518Z,53.07
2023-02-24T08:43:34.074Z,51.80
2023-02-24T08:46:05.770Z,64.87
2023-02-24T08:48:38.177Z,54.97
2023-02-24T08:51:08.749Z,61.70
2023-02-24T08:53:40.694Z,51.77
2023-02-24T08:56:13.124Z,58.97
2023-02-24T08:58:47.300Z,55.63
2023-02-24T09:01:24.356Z,55.70
2023-02-24T09:03:54.441Z,59.33
2023-02-24T09:06:25.532Z,47.57
2023-02-24T09:09:11.718Z,50.60
2023-02-24T09:11:44.071Z,49.57
2023-02-24T09:14:26.109Z,47.23
2023-02-24T09:17:06.129Z,49.30
2023-02-24T09:20:01.730Z,59.03
2023-02-24T09:22:40.982Z,46.30
2023-02-24T09:25:25.944Z,50.07
2023-02-24T09:28:08.114Z,44.07
2023-02-24T09:30:38.031Z,46.10
2023-02-24T09:33:21.221Z,40.80
2023-02-24T09:35:54.202Z,54.53
2023-02-24T09:38:46.115Z,49.60
2023-02-24T09:41:30.096Z,45.67
2023-02-24T09:44:03.813Z,48.07
2023-02-24T09:46:40.307Z,43.23
2023-02-24T09:49:14.512Z,48.53
2023-02-24T09:51:45.752Z,46.97
2023-02-24T09:54:16.669Z,46.30
2023-02-24T09:56:57.324Z,46.07
2023-02-24T09:59:34.724Z,44.83
2023-02-24T10:02:16.315Z,43.07
2023-02-24T10:05:07.283Z,53.03
2023-02-24T10:07:39.471Z,46.97
2023-02-24T10:10:28.120Z,49.10
2023-02-24T10:13:00.442Z,45.57
2023-02-24T10:15:47.655Z,47.33
2023-02-24T10:18:27.364Z,41.87
2023-02-24T10:20:58.225Z,43.60
2023-02-24T10:23:33.071Z,47.37
2023-02-24T10:26:07.719Z,42.80
2023-02-24T10:28:43.893Z,40.03
2023-02-24T10:31:25.299Z,45.33
2023-02-24T10:33:57.512Z,40.77
2023-02-24T10:36:35.404Z,44.73
2023-02-24T10:39:08.510Z,38.57
2023-02-24T10:41:45.808Z,37.43
2023-02-24T10:44:24.206Z,41.33
2023-02-24T10:47:11.585Z,43.83
2023-02-24T10:49:56.859Z,38.33
2023-02-24T10:53:10.957Z,37.33
2023-02-24T10:55:53.609Z,34.53
2023-02-24T10:58:39.225Z,35.63
2023-02-24T11:01:18.181Z,32.63
2023-02-24T11:04:01.341Z,30.13
2023-02-24T11:06:48.302Z,32.47
2023-02-24T11:09:32.314Z,28.67
2023-02-24T11:12:19.116Z,28.63
2023-02-24T11:15:09.627Z,28.17
2023-02-24T11:17:46.760Z,29.00
2023-02-24T11:20:21.385Z,26.50
2023-02-24T11:22:52.457Z,24.80
2023-02-24T11:25:24.246Z,25.77
2023-02-24T11:27:53.674Z,23.67
2023-02-24T11:30:25.699Z,23.90
2023-02-24T11:33:09.288Z,21.53
2023-02-24T11:35:40.764Z,21.57
2023-02-24T11:38:13.968Z,26.33
2023-02-24T11:40:45.073Z,20.90
2023-02-24T11:43:18.564Z,20.10
2023-02-24T11:45:49.393Z,23.43
2023-02-24T11:48:20.505Z,20.10
2023-02-24T11:50:51.085Z,21.70
2023-02-24T11:53:27.046Z,18.97
2023-02-24T11:55:59.256Z,23.17
2023-02-24T11:58:31.193Z,21.70
2023-02-24T12:01:04.909Z,25.93
2023-02-24T12:03:38.003Z,28.37
2023-02-24T12:06:12.680Z,26.87
2023-02-24T12:08:44.558Z,26.53
2023-02-24T12:11:16.399Z,22.43
2023-02-24T12:13:47.498Z,23.10
2023-02-24T12:16:21.092Z,22.80
2023-02-24T12:18:54.308Z,26.03
2023-02-24T12:21:25.354Z,22.80
2023-02-24T12:23:54.736Z,27.67
2023-02-24T12:26:25.562Z,26.53
2023-02-24T12:29:09.757Z,23.03
2023-02-24T12:31:42.321Z,22.63
2023-02-24T12:34:15.567Z,25.40
2023-02-24T12:37:00.647Z,31.93
2023-02-24T12:39:31.818Z,23.87
2023-02-24T12:42:06.369Z,25.47
2023-02-24T12:44:38.849Z,23.47
2023-02-24T12:47:10.981Z,27.33
2023-02-24T12:49:53.026Z,23.27
2023-02-24T12:52:26.121Z,27.97
2023-02-24T12:54:57.100Z,25.23
2023-02-24T12:57:29.348Z,24.47
2023-02-24T12:59:58.291Z,24.43
2023-02-24T13:02:32.264Z,26.10
2023-02-24T13:05:05.224Z,32.33
2023-02-24T13:07:43.874Z,26.50
2023-02-24T13:10:20.992Z,21.60
2023-02-24T13:12:53.146Z,30.63
2023-02-24T13:15:23.220Z,23.10
2023-02-24T13:17:52.873Z,25.50
2023-02-24T13:20:30.145Z,20.73
2023-02-24T13:23:00.096Z,26.97
2023-02-24T13:25:31.816Z,24.87
2023-02-24T13:28:02.317Z,28.07
2023-02-24T13:30:34.755Z,24.83
2023-02-24T13:33:05.497Z,26.13
2023-02-24T13:35:37.537Z,22.03
2023-02-24T13:38:11.437Z,20.67
2023-02-24T13:40:39.984Z,22.80
2023-02-24T13:43:24.041Z,23.93
2023-02-24T13:45:57.267Z,19.50
2023-02-24T13:48:35.570Z,25.63
2023-02-24T13:51:13.622Z,21.83
2023-02-24T13:53:54.066Z,27.37
2023-02-24T13:56:27.550Z,25.00
2023-02-24T13:59:19.856Z,26.00
2023-02-24T14:01:50.132Z,19.63
2023-02-24T14:04:20.383Z,23.23
2023-02-24T14:06:51.675Z,20.50
2023-02-24T14:09:24.111Z,23.43
2023-02-24T14:11:53.885Z,27.17
2023-02-24T14:14:22.532Z,22.20
2023-02-24T14:16:52.660Z,26.00
2023-02-24T14:19:21.276Z,22.50
2023-02-24T14:21:53.358Z,23.77
2023-02-24T14:24:22.097Z,21.60
2023-02-24T14:26:51.871Z,25.70
2023-02-24T14:29:21.531Z,25.73
2023-02-24T14:31:54.632Z,24.00
2023-02-24T14:34:24.679Z,22.73
2023-02-24T14:36:55.801Z,23.33
2023-02-24T14:39:24.915Z,25.43
2023-02-24T14:41:54.194Z,20.97
2023-02-24T14:44:25.617Z,22.23
2023-02-24T14:46:55.243Z,21.30
2023-02-24T14:49:25.551Z,20.23
2023-02-24T14:51:57.824Z,27.07
2023-02-24T14:54:33.608Z,25.43
2023-02-24T14:57:02.560Z,24.20
2023-02-24T14:59:33.232Z,22.60
2023-02-24T15:02:02.889Z,22.80
2023-02-24T15:04:37.205Z,29.97
2023-02-24T15:07:07.900Z,23.87
2023-02-24T15:09:37.414Z,20.67
2023-02-24T15:12:10.425Z,22.90
2023-02-24T15:14:38.949Z,22.67
2023-02-24T15:17:10.706Z,23.90
2023-02-24T15:19:44.310Z,23.83
2023-02-24T15:22:34.708Z,28.00
2023-02-24T15:25:15.361Z,30.00
2023-02-24T15:27:51.924Z,29.10
2023-02-24T15:30:27.824Z,23.63
2023-02-24T15:33:01.755Z,24.53
2023-02-24T15:35:30.507Z,20.60
2023-02-24T15:37:59.027Z,22.80
2023-02-24T15:40:29.619Z,29.33
2023-02-24T15:42:58.824Z,21.73
2023-02-24T15:45:30.227Z,20.30
2023-02-24T15:48:00.171Z,24.27
2023-02-24T15:50:32.431Z,24.33
2023-02-24T15:53:06.358Z,23.03
2023-02-24T15:55:36.496Z,27.57
2023-02-24T15:58:05.625Z,21.50
2023-02-24T16:00:34.100Z,25.10
2023-02-24T16:03:03.720Z,27.37
2023-02-24T16:05:32.379Z,22.23
2023-02-24T16:08:00.781Z,24.63
2023-02-24T16:10:30.623Z,20.70
2023-02-24T16:13:03.732Z,27.17
2023-02-24T16:15:32.768Z,22.57
2023-02-24T16:18:03.264Z,26.50
2023-02-24T16:20:33.595Z,25.00
2023-02-24T16:23:02.839Z,24.37
2023-02-24T16:25:32.276Z,22.07
2023-02-24T16:28:02.810Z,21.00
2023-02-24T16:30:32.187Z,20.63
2023-02-24T16:33:01.916Z,22.43
2023-02-24T16:35:30.477Z,25.00
2023-02-24T16:38:01.174Z,21.77
2023-02-24T16:40:31.931Z,29.27
2023-02-24T16:43:01.833Z,27.37
2023-02-24T16:45:31.233Z,21.73
2023-02-24T16:48:02.370Z,32.43
2023-02-24T16:50:33.395Z,27.17
2023-02-24T16:53:01.792Z,24.80
2023-02-24T16:55:30.419Z,23.37
2023-02-24T16:57:58.890Z,34.37
2023-02-24T17:00:29.155Z,28.07
2023-02-24T17:02:57.608Z,26.07
2023-02-24T17:05:26.493Z,29.00
2023-02-24T17:07:56.212Z,26.53
2023-02-24T17:10:25.423Z,28.80
2023-02-24T17:12:53.976Z,28.07
2023-02-24T17:15:23.403Z,32.87
2023-02-24T17:17:53.279Z,24.00
2023-02-24T17:20:22.627Z,34.90
2023-02-24T17:22:51.110Z,34.27
2023-02-24T17:25:20.686Z,30.93
2023-02-24T17:27:49.121Z,30.43
2023-02-24T17:30:18.683Z,28.40
2023-02-24T17:32:47.152Z,27.20
2023-02-24T17:35:17.133Z,35.17
2023-02-24T17:37:45.625Z,29.20
2023-02-24T17:40:14.790Z,26.97
2023-02-24T17:42:43.246Z,27.53
2023-02-24T17:45:15.465Z,29.97
2023-02-24T17:47:44.346Z,30.87
2023-02-24T17:50:14.551Z,26.57
2023-02-24T17:52:44.466Z,27.50
2023-02-24T17:55:13.683Z,28.23
2023-02-24T17:57:42.136Z,21.87
2023-02-24T18:00:12.504Z,26.60
2023-02-24T18:02:41.069Z,25.03
2023-02-24T18:05:10.150Z,27.97
2023-02-24T18:07:38.589Z,22.47
2023-02-24T18:10:09.687Z,27.50
2023-02-24T18:12:38.613Z,27.83
2023-02-24T18:15:09.192Z,28.30
2023-02-24T18:17:38.362Z,23.83
2023-02-24T18:20:07.445Z,30.63
2023-02-24T18:22:36.036Z,27.77
2023-02-24T18:25:05.212Z,28.07
2023-02-24T18:27:34.996Z,29.50
2023-02-24T18:30:03.504Z,30.43
2023-02-24T18:32:32.039Z,28.77
2023-02-24T18:35:00.602Z,32.97
2023-02-24T18:37:29.017Z,34.30
2023-02-24T18:39:57.398Z,31.90
2023-02-24T18:42:25.824Z,40.13
2023-02-24T18:44:55.612Z,31.90
2023-02-24T18:47:25.297Z,35.87
2023-02-24T18:49:53.691Z,28.60
2023-02-24T18:52:22.095Z,32.17
2023-02-24T18:54:50.574Z,34.20
2023-02-24T18:57:18.984Z,29.43
2023-02-24T18:59:50.508Z,26.80
2023-02-24T19:02:20.227Z,34.20
2023-02-24T19:04:48.712Z,31.53
2023-02-24T19:07:17.162Z,22.97
2023-02-24T19:09:45.530Z,25.87
2023-02-24T19:12:14.874Z,26.47
2023-02-24T19:14:43.283Z,24.10
2023-02-24T19:17:11.673Z,26.13
2023-02-24T19:19:43.464Z,34.57
2023-02-24T19:22:12.218Z,26.10
2023-02-24T19:24:40.684Z,25.80
2023-02-24T19:27:09.320Z,30.67
2023-02-24T19:29:37.829Z,27.20
2023-02-24T19:32:06.410Z,23.90
2023-02-24T19:34:34.957Z,28.70
2023-02-24T19:37:04.826Z,26.07
2023-02-24T19:39:33.262Z,31.73
2023-02-24T19:42:01.906Z,28.80
2023-02-24T19:44:30.304Z,25.70
2023-02-24T19:46:58.737Z,24.97
2023-02-24T19:49:27.665Z,32.40
2023-02-24T19:51:56.207Z,29.50
2023-02-24T19:54:26.692Z,31.33
2023-02-24T19:56:57.271Z,33.93
2023-02-24T19:59:25.958Z,27.50
2023-02-24T20:01:55.251Z,32.67
2023-02-24T20:04:24.431Z,29.93
2023-02-24T20:06:52.868Z,30.00
2023-02-24T20:09:22.254Z,29.33
2023-02-24T20:11:54.197Z,28.50
2023-02-24T20:14:22.630Z,27.77
2023-02-24T20:16:51.090Z,29.33
2023-02-24T20:19:19.530Z,17.50
2023-02-24T20:21:48.467Z,14.30
2023-02-24T20:24:18.077Z,18.47
2023-02-24T20:26:47.497Z,15.67
2023-02-24T20:29:17.611Z,16.57
2023-02-24T20:31:46.477Z,8.83
2023-02-24T20:34:16.650Z,13.70
2023-02-24T20:36:45.402Z,13.10
2023-02-24T20:39:13.846Z,13.17
2023-02-24T20:41:42.531Z,10.87
2023-02-24T20:44:11.182Z,8.70
2023-02-24T20:46:40.961Z,9.13
2023-02-24T20:49:11.287Z,13.87
2023-02-24T20:51:40.122Z,8.77
2023-02-24T20:54:09.239Z,9.97
2023-02-24T20:56:38.682Z,8.97
2023-02-24T20:59:09.116Z,7.23
2023-02-24T21:01:39.023Z,7.50
2023-02-24T21:04:09.091Z,11.40
2023-02-24T21:06:37.806Z,7.70
2023-02-24T21:09:06.672Z,12.13
2023-02-24T21:11:35.138Z,11.47
2023-02-24T21:14:04.273Z,9.83
2023-02-24T21:16:32.694Z,13.03
2023-02-24T21:19:01.197Z,9.80
2023-02-24T21:21:30.952Z,10.17
2023-02-24T21:23:59.371Z,11.43
2023-02-24T21:26:29.227Z,10.27
2023-02-24T21:28:59.336Z,11.43
2023-02-24T21:31:28.673Z,7.03
2023-02-24T21:33:57.489Z,9.77
2023-02-24T21:36:28.085Z,9.97
2023-02-24T21:38:57.954Z,11.10
2023-02-24T21:41:26.378Z,10.13
2023-02-24T21:43:55.844Z,12.83
2023-02-24T21:46:28.348Z,12.70
2023-02-24T21:49:00.120Z,12.83
2023-02-24T21:51:29.236Z,14.67
2023-02-24T21:54:00.793Z,16.53
2023-02-24T21:56:30.413Z,14.27
2023-02-24T21:59:00.122Z,18.20
2023-02-24T22:01:29.730Z,12.77
2023-02-24T22:03:58.882Z,13.23
2023-02-24T22:06:31.455Z,14.77
2023-02-24T22:09:02.122Z,14.57
2023-02-24T22:11:31.948Z,13.73
2023-02-24T22:14:00.482Z,15.73
2023-02-24T22:16:30.376Z,15.37
2023-02-24T22:18:58.958Z,18.33
2023-02-24T22:21:28.247Z,19.87
2023-02-24T22:23:59.513Z,20.63
2023-02-24T22:26:29.883Z,21.23
2023-02-24T22:28:58.595Z,17.97
2023-02-24T22:31:28.082Z,24.83
2023-02-24T22:33:56.703Z,24.33
2023-02-24T22:36:26.715Z,23.30
2023-02-24T22:38:56.167Z,24.83
2023-02-24T22:41:25.775Z,22.20
2023-02-24T22:43:55.637Z,25.90
2023-02-24T22:46:25.343Z,21.37
2023-02-24T22:48:54.093Z,18.63
2023-02-24T22:51:22.516Z,19.93
2023-02-24T22:53:51.484Z,26.50
2023-02-24T22:56:21.182Z,26.17
2023-02-24T22:58:49.966Z,26.80
2023-02-24T23:01:21.926Z,28.77
2023-02-24T23:03:50.750Z,24.97
2023-02-24T23:06:20.684Z,26.00
2023-02-24T23:08:50.387Z,26.77
2023-02-24T23:11:19.757Z,27.93
2023-02-24T23:13:48.960Z,25.57
2023-02-24T23:16:18.994Z,20.93
2023-02-24T23:18:50.824Z,22.43
2023-02-24T23:21:20.074Z,21.83
2023-02-24T23:23:48.613Z,25.37
2023-02-24T23:26:18.022Z,24.40
2023-02-24T23:28:46.662Z,24.33
2023-02-24T23:31:19.824Z,25.10
2023-02-24T23:33:50.541Z,27.37
2023-02-24T23:36:19.071Z,24.70
2023-02-24T23:38:47.504Z,23.87
2023-02-24T23:41:16.254Z,26.43
2023-02-24T23:43:45.094Z,22.70
2023-02-24T23:46:14.532Z,22.83
2023-02-24T23:48:43.289Z,22.53
2023-02-24T23:51:14.798Z,21.43
2023-02-24T23:53:43.959Z,26.23
2023-02-24T23:56:14.748Z,24.53
2023-02-24T23:58:43.483Z,18.50
